Lake Dynasty — 3FZB2 — position and weather

sailwx.info

Track history (hours):
 
Tides and Currents Weather Stations Pressure Air Temp Water Temp Dewpoint Dewpoint Depression Visibility Wind Speed Wind Dir Waves Ship Positions

Lake Dynasty

Last reported at 2014-Aug-12 05:16 UTC. Time now 2014-Sep-22 02:13 UTC.
Position S 37°20' E 150°22'.
Warning: this ship's position is 40 days out of date.

Length 182 m; draft 6.4 m.

Type: Cargo ship. MMSI: 370957000.

Date/timePositionNaut miles runAvg speedWind from/ knotsBaromVisibWave heightAir tempDewpointWater temp
2014-Aug-12 05:16S 37°20' E 150°22'16812.3
2014-Aug-11 15:34S 38°59' E 147°29'1312.8
2014-Aug-11 14:33S 39°03' E 147°13'1212.3
2014-Aug-11 13:33S 39°08' E 146°59'1211.9
2014-Aug-11 12:33S 39°13' E 146°45'1211.5
2014-Aug-11 11:33S 39°17' E 146°31'1212.1
2014-Aug-11 10:33S 39°17' E 146°16'1212.4
2014-Aug-11 09:33S 39°16' E 145°60'1312.6
2014-Aug-11 08:33S 39°15' E 145°43'1212.5
2014-Aug-11 07:34S 39°15' E 145°27'14411.8
2014-Aug-10 19:22S 38°54' E 142°24'911.6
2014-Aug-10 18:33S 38°52' E 142°12'1010.6
2014-Aug-10 17:34S 38°49' E 141°59'1511.3
2014-Aug-10 16:12S 38°45' E 141°40'  
Track history (hours):
 
Tides and Currents Weather Stations Pressure Air Temp Water Temp Dewpoint Dewpoint Depression Visibility Wind Speed Wind Dir Waves Ship Positions

Lake Dynasty

Last reported at 2014-Aug-12 05:16 UTC. Time now 2014-Sep-22 02:13 UTC.
Position S 37°20' E 150°22'.
Warning: this ship's position is 40 days out of date.

Length 182 m; draft 6.4 m.

Type: Cargo ship. MMSI: 370957000.

Date/timePositionNaut miles runAvg speedWind from/ knotsBaromVisibWave heightAir tempDewpointWater temp
2014-Aug-12 05:16S 37°20' E 150°22'16812.3
2014-Aug-11 15:34S 38°59' E 147°29'1312.8
2014-Aug-11 14:33S 39°03' E 147°13'1212.3
2014-Aug-11 13:33S 39°08' E 146°59'1211.9
2014-Aug-11 12:33S 39°13' E 146°45'1211.5
2014-Aug-11 11:33S 39°17' E 146°31'1212.1
2014-Aug-11 10:33S 39°17' E 146°16'1212.4
2014-Aug-11 09:33S 39°16' E 145°60'1312.6
2014-Aug-11 08:33S 39°15' E 145°43'1212.5
2014-Aug-11 07:34S 39°15' E 145°27'14411.8
2014-Aug-10 19:22S 38°54' E 142°24'911.6
2014-Aug-10 18:33S 38°52' E 142°12'1010.6
2014-Aug-10 17:34S 38°49' E 141°59'1511.3
2014-Aug-10 16:12S 38°45' E 141°40'  

Dump ship's entire track history